Adams, Wisconsin
Current Conditions -  °F | °C
As of 1:58 PM on Thursday 29 Jan 2015 (Local Time) from KVOK Reporting Station
Overcast Overcast  
Wind Chill: 23°   Ceiling: 2900
Heat Index: 34°   Visibility: 10mi
Dew Point: 28°   Wind: 18mph
Humidity: 81%   Direction: 310°NW
Pressure: 30.06"   Gusts: 24mph
Location:  43.96°N, 89.82°W
Report Text: KVOK 291958Z 31016G21KT 10SM BKN029 OVC034 01/M02 A3006 RMK AO2A SLP193
Loading
Personal Weather Stations






























Interactive Weather Map New forecast layout! Learn more

10-Day Weather Forecast

Advertisements
Track Severe Weather on mobile